| time (UTC) | temp F | wind direction | speed MPH | gust MPH | rain 1hr in | rain 24hr in | rain mn in | humidity % | barometer mb |
| 20260508221503 | 56 | 0 | 0.0 | 0.0 | 0.00 | 0.00 | 0.00 | 86 | 1016.2 |
| 20260508220006 | 57 | 0 | 0.0 | 0.0 | 0.00 | 0.00 | 0.00 | 85 | 1016.0 |
| 20260508214504 | 57 | 0 | 0.0 | 0.0 | 0.00 | 0.00 | 0.00 | 84 | 1016.0 |
| 20260508213006 | 58 | 0 | 0.0 | 0.0 | 0.00 | 0.00 | 0.00 | 83 | 1015.8 |
| 20260508211503 | 59 | 0 | 0.0 | 0.0 | 0.00 | 0.00 | 0.00 | 82 | 1015.9 |
| 20260508210007 | 60 | 0 | 0.0 | 0.0 | 0.00 | 0.00 | 0.00 | 82 | 1015.7 |
| 20260508204505 | 60 | 0 | 0.0 | 0.0 | 0.00 | 0.00 | 0.00 | 80 | 1015.8 |
| 20260508203006 | 61 | 0 | 0.0 | 0.0 | 0.00 | 0.00 | 0.00 | 79 | 1015.7 |
| 20260508201504 | 62 | 0 | 0.0 | 0.0 | 0.00 | 0.00 | 0.00 | 79 | 1015.7 |
| 20260508200006 | 62 | 0 | 0.0 | 0.0 | 0.00 | 0.00 | 0.00 | 78 | 1015.6 |
| 20260508194503 | 63 | 0 | 0.0 | 0.0 | 0.00 | 0.00 | 0.00 | 77 | 1015.4 |
| 20260508193006 | 63 | 0 | 0.0 | 0.0 | 0.00 | 0.00 | 0.00 | 76 | 1015.3 |
| 20260508191504 | 64 | 0 | 0.0 | 0.0 | 0.00 | 0.00 | 0.00 | 76 | 1015.1 |
| 20260508190006 | 65 | 0 | 0.0 | 0.0 | 0.00 | 0.00 | 0.00 | 74 | 1015.1 |
| 20260508184505 | 65 | 0 | 0.0 | 0.0 | 0.00 | 0.00 | 0.00 | 73 | 1014.8 |
| 20260508183005 | 66 | 0 | 0.0 | 0.0 | 0.00 | 0.00 | 0.00 | 71 | 1014.7 |
| 20260508181504 | 67 | 0 | 0.0 | 0.0 | 0.00 | 0.00 | 0.00 | 69 | 1014.5 |
| 20260508180006 | 68 | 181 | 1.0 | 4.0 | 0.00 | 0.00 | 0.00 | 66 | 1014.3 |
| 20260508174504 | 70 | 0 | 0.0 | 0.0 | 0.00 | 0.00 | 0.00 | 65 | 1014.3 |
| 20260508173006 | 71 | 0 | 0.0 | 0.0 | 0.00 | 0.00 | 0.00 | 64 | 1014.0 |
| 20260508171504 | 71 | 171 | 3.0 | 6.0 | 0.00 | 0.00 | 0.00 | 62 | 1013.8 |
| 20260508170006 | 73 | 135 | 1.0 | 3.0 | 0.00 | 0.00 | 0.00 | 59 | 1013.9 |
| 20260508164504 | 74 | 0 | 0.0 | 0.0 | 0.00 | 0.00 | 0.00 | 58 | 1014.1 |
| 20260508163006 | 73 | 142 | 1.0 | 5.0 | 0.00 | 0.00 | 0.00 | 59 | 1014.0 |
| 20260508161504 | 72 | 126 | 0.0 | 2.0 | 0.00 | 0.00 | 0.00 | 58 | 1014.0 |
| 20260508160006 | 73 | 157 | 0.0 | 2.0 | 0.00 | 0.00 | 0.00 | 58 | 1013.9 |
| 20260508154504 | 74 | 181 | 1.0 | 6.0 | 0.00 | 0.00 | 0.00 | 57 | 1013.8 |
| 20260508153006 | 74 | 181 | 1.0 | 3.0 | 0.00 | 0.00 | 0.00 | 55 | 1013.9 |
| 20260508151504 | 75 | 0 | 0.0 | 0.0 | 0.00 | 0.00 | 0.00 | 57 | 1013.8 |
| 20260508150006 | 74 | 0 | 0.0 | 0.0 | 0.00 | 0.00 | 0.00 | 56 | 1013.9 |
| 20260508144503 | 74 | 130 | 1.0 | 2.0 | 0.00 | 0.00 | 0.00 | 57 | 1013.9 |
| 20260508143006 | 75 | 0 | 0.0 | 0.0 | 0.00 | 0.00 | 0.00 | 56 | 1014.1 |
| 20260508141503 | 75 | 135 | 1.0 | 4.0 | 0.00 | 0.00 | 0.00 | 56 | 1014.1 |
| 20260508140006 | 76 | 0 | 0.0 | 0.0 | 0.00 | 0.00 | 0.00 | 56 | 1014.2 |
| 20260508134505 | 76 | 0 | 0.0 | 0.0 | 0.00 | 0.00 | 0.00 | 57 | 1014.3 |
| 20260508133007 | 76 | 85 | 3.0 | 9.0 | 0.00 | 0.00 | 0.00 | 57 | 1014.5 |
| 20260508131504 | 75 | 97 | 2.0 | 6.0 | 0.00 | 0.00 | 0.00 | 57 | 1014.7 |
| 20260508130006 | 76 | 123 | 2.0 | 6.0 | 0.00 | 0.00 | 0.00 | 57 | 1014.5 |
| 20260508124504 | 76 | 90 | 1.0 | 4.0 | 0.00 | 0.00 | 0.00 | 58 | 1014.7 |
| 20260508123007 | 76 | 103 | 3.0 | 7.0 | 0.00 | 0.00 | 0.00 | 58 | 1014.7 |
| 20260508121504 | 76 | 111 | 1.0 | 2.0 | 0.00 | 0.00 | 0.00 | 60 | 1014.8 |
| 20260508120006 | 76 | 104 | 3.0 | 6.0 | 0.00 | 0.00 | 0.00 | 58 | 1014.8 |
| 20260508114504 | 77 | 95 | 2.0 | 5.0 | 0.00 | 0.00 | 0.00 | 59 | 1014.8 |
| 20260508113006 | 76 | 135 | 1.0 | 4.0 | 0.00 | 0.00 | 0.00 | 58 | 1015.0 |
| 20260508111504 | 78 | 135 | 0.0 | 2.0 | 0.00 | 0.00 | 0.00 | 59 | 1015.0 |
| 20260508110007 | 77 | 111 | 5.0 | 6.0 | 0.00 | 0.00 | 0.00 | 60 | 1015.1 |
| 20260508104504 | 76 | 87 | 3.0 | 6.0 | 0.00 | 0.00 | 0.00 | 60 | 1015.3 |
| 20260508103005 | 76 | 112 | 2.0 | 3.0 | 0.00 | 0.00 | 0.00 | 62 | 1015.4 |
| 20260508101504 | 75 | 135 | 1.0 | 4.0 | 0.00 | 0.00 | 0.00 | 62 | 1015.5 |
| 20260508100005 | 75 | 96 | 3.0 | 4.0 | 0.00 | 0.00 | 0.00 | 63 | 1015.5 |
| 20260508094503 | 75 | 138 | 2.0 | 7.0 | 0.00 | 0.00 | 0.00 | 63 | 1015.6 |
| 20260508093006 | 74 | 97 | 6.0 | 9.0 | 0.00 | 0.00 | 0.00 | 65 | 1015.8 |
| 20260508091503 | 74 | 68 | 1.0 | 5.0 | 0.00 | 0.00 | 0.00 | 66 | 1015.7 |
| 20260508090005 | 73 | 90 | 1.0 | 2.0 | 0.00 | 0.00 | 0.00 | 70 | 1015.7 |
| 20260508084503 | 69 | 96 | 3.0 | 5.0 | 0.00 | 0.00 | 0.00 | 74 | 1015.7 |
| 20260508083006 | 69 | 112 | 2.0 | 5.0 | 0.00 | 0.00 | 0.00 | 74 | 1015.8 |
| 20260508081503 | 69 | 108 | 3.0 | 7.0 | 0.00 | 0.00 | 0.00 | 75 | 1015.7 |
| 20260508080004 | 69 | 115 | 3.0 | 9.0 | 0.00 | 0.00 | 0.00 | 76 | 1015.8 |
| 20260508074502 | 68 | 87 | 4.0 | 6.0 | 0.00 | 0.00 | 0.00 | 78 | 1015.6 |
| 20260508073005 | 69 | 124 | 3.0 | 6.0 | 0.00 | 0.00 | 0.00 | 78 | 1015.5 |
| 20260508071503 | 70 | 96 | 0.0 | 6.0 | 0.00 | 0.00 | 0.00 | 78 | 1015.5 |
| 20260508070005 | 69 | 109 | 4.0 | 5.0 | 0.00 | 0.00 | 0.00 | 81 | 1015.5 |
| 20260508064504 | 66 | 90 | 1.0 | 4.0 | 0.00 | 0.00 | 0.00 | 83 | 1015.4 |
| 20260508063005 | 63 | 111 | 0.0 | 1.0 | 0.00 | 0.00 | 0.00 | 86 | 1015.4 |